Weather at Wanaaring Airport

Public forecast

Using degrees Celsius for public forecast. Weather courtesy of forecast.io.

Closest aviation weather report (METAR) to Wanaaring Airport

Closest report is Cobar Airport, 137.9 nm (255.5 km) SE. Retrieved 2021/06/20 10:00 UTC (45 seconds ago):

YCBA 201000Z AUTO 00000KT 9999 // NCD 08/07 Q1023

Closest aviation forecast (TAF) to Wanaaring Airport

Closest forecast is Dubbo City Regional Airport, 272.0 nm (503.8 km) SE. Retrieved 2021/06/20 06:36 UTC (3 hours ago):

TAF YSDU 200510Z 2006/2100 15008KT 9999 FEW030 FM201200 12005KT CAVOK